sensor_id;sensor_type;location;lat;lon;timestamp;temperature;humidity
60033;DHT22;45905;50.570;10.428;2022-07-01T00:00:30;22.50;65.10
60033;DHT22;45905;50.570;10.428;2022-07-01T00:02:57;22.40;65.10
60033;DHT22;45905;50.570;10.428;2022-07-01T00:05:25;22.30;65.50
60033;DHT22;45905;50.570;10.428;2022-07-01T00:07:52;22.30;65.60
60033;DHT22;45905;50.570;10.428;2022-07-01T00:10:19;22.20;65.60
60033;DHT22;45905;50.570;10.428;2022-07-01T00:12:46;22.10;65.90
60033;DHT22;45905;50.570;10.428;2022-07-01T00:15:14;22.10;66.00
60033;DHT22;45905;50.570;10.428;2022-07-01T00:17:41;22.10;65.80
60033;DHT22;45905;50.570;10.428;2022-07-01T00:20:10;22.00;65.90
60033;DHT22;45905;50.570;10.428;2022-07-01T00:22:38;22.00;66.10
60033;DHT22;45905;50.570;10.428;2022-07-01T00:25:05;22.00;65.90
60033;DHT22;45905;50.570;10.428;2022-07-01T00:27:37;21.90;66.00
60033;DHT22;45905;50.570;10.428;2022-07-01T00:30:08;21.80;66.30
60033;DHT22;45905;50.570;10.428;2022-07-01T00:32:36;21.70;66.40
60033;DHT22;45905;50.570;10.428;2022-07-01T00:35:04;21.70;66.40
60033;DHT22;45905;50.570;10.428;2022-07-01T00:37:32;21.70;66.40
60033;DHT22;45905;50.570;10.428;2022-07-01T00:39:59;21.70;66.50
60033;DHT22;45905;50.570;10.428;2022-07-01T00:42:26;21.60;66.60
60033;DHT22;45905;50.570;10.428;2022-07-01T00:44:53;21.60;66.70
60033;DHT22;45905;50.570;10.428;2022-07-01T00:47:21;21.60;66.80
60033;DHT22;45905;50.570;10.428;2022-07-01T00:49:49;21.60;66.80
60033;DHT22;45905;50.570;10.428;2022-07-01T00:52:16;21.60;66.80
60033;DHT22;45905;50.570;10.428;2022-07-01T00:54:43;21.60;66.60
60033;DHT22;45905;50.570;10.428;2022-07-01T00:57:11;21.60;67.00
60033;DHT22;45905;50.570;10.428;2022-07-01T00:59:40;21.60;67.20
60033;DHT22;45905;50.570;10.428;2022-07-01T01:02:08;21.50;66.90
60033;DHT22;45905;50.570;10.428;2022-07-01T01:04:36;21.50;67.10
60033;DHT22;45905;50.570;10.428;2022-07-01T01:07:04;21.40;67.20
60033;DHT22;45905;50.570;10.428;2022-07-01T01:09:32;21.30;67.40
60033;DHT22;45905;50.570;10.428;2022-07-01T01:12:01;21.30;67.50
60033;DHT22;45905;50.570;10.428;2022-07-01T01:14:28;21.30;68.10
60033;DHT22;45905;50.570;10.428;2022-07-01T01:16:56;21.30;67.40
60033;DHT22;45905;50.570;10.428;2022-07-01T01:19:23;21.30;67.60
60033;DHT22;45905;50.570;10.428;2022-07-01T01:21:50;21.30;67.50
60033;DHT22;45905;50.570;10.428;2022-07-01T01:24:17;21.20;67.40
60033;DHT22;45905;50.570;10.428;2022-07-01T01:26:45;21.20;67.30
60033;DHT22;45905;50.570;10.428;2022-07-01T01:29:12;21.20;67.30
60033;DHT22;45905;50.570;10.428;2022-07-01T01:31:40;21.20;67.60
60033;DHT22;45905;50.570;10.428;2022-07-01T01:34:07;21.10;67.40
60033;DHT22;45905;50.570;10.428;2022-07-01T01:36:35;21.10;67.70
60033;DHT22;45905;50.570;10.428;2022-07-01T01:39:02;21.00;67.80
60033;DHT22;45905;50.570;10.428;2022-07-01T01:41:33;21.00;67.80
60033;DHT22;45905;50.570;10.428;2022-07-01T01:44:00;20.90;67.70
60033;DHT22;45905;50.570;10.428;2022-07-01T01:46:27;20.90;67.70
60033;DHT22;45905;50.570;10.428;2022-07-01T01:48:57;20.80;67.80
60033;DHT22;45905;50.570;10.428;2022-07-01T01:51:25;20.70;68.00
60033;DHT22;45905;50.570;10.428;2022-07-01T01:53:53;20.60;68.00
60033;DHT22;45905;50.570;10.428;2022-07-01T01:56:20;20.70;68.30
60033;DHT22;45905;50.570;10.428;2022-07-01T01:58:48;20.60;68.30
60033;DHT22;45905;50.570;10.428;2022-07-01T02:01:17;20.50;68.30
60033;DHT22;45905;50.570;10.428;2022-07-01T02:03:47;20.40;68.30
60033;DHT22;45905;50.570;10.428;2022-07-01T02:06:17;20.40;68.70
60033;DHT22;45905;50.570;10.428;2022-07-01T02:08:46;20.30;68.90
60033;DHT22;45905;50.570;10.428;2022-07-01T02:11:13;20.30;68.60
60033;DHT22;45905;50.570;10.428;2022-07-01T02:13:40;20.30;68.80
60033;DHT22;45905;50.570;10.428;2022-07-01T02:16:08;20.30;68.70
60033;DHT22;45905;50.570;10.428;2022-07-01T02:18:35;20.40;69.00
60033;DHT22;45905;50.570;10.428;2022-07-01T02:21:02;20.30;68.80
60033;DHT22;45905;50.570;10.428;2022-07-01T02:23:36;20.30;69.00
60033;DHT22;45905;50.570;10.428;2022-07-01T02:26:04;20.20;69.20
60033;DHT22;45905;50.570;10.428;2022-07-01T02:28:31;20.20;69.50
60033;DHT22;45905;50.570;10.428;2022-07-01T02:30:58;20.10;69.50
60033;DHT22;45905;50.570;10.428;2022-07-01T02:33:26;20.10;69.80
60033;DHT22;45905;50.570;10.428;2022-07-01T02:35:53;20.10;70.00
60033;DHT22;45905;50.570;10.428;2022-07-01T02:38:20;20.00;69.90
60033;DHT22;45905;50.570;10.428;2022-07-01T02:40:47;20.00;71.10
60033;DHT22;45905;50.570;10.428;2022-07-01T02:43:14;19.90;71.40
60033;DHT22;45905;50.570;10.428;2022-07-01T02:45:42;19.80;71.70
60033;DHT22;45905;50.570;10.428;2022-07-01T02:48:10;19.70;72.10
60033;DHT22;45905;50.570;10.428;2022-07-01T02:50:37;19.50;72.30
60033;DHT22;45905;50.570;10.428;2022-07-01T02:53:04;19.30;72.80
60033;DHT22;45905;50.570;10.428;2022-07-01T02:55:31;19.20;72.90
60033;DHT22;45905;50.570;10.428;2022-07-01T02:57:59;19.20;73.30
60033;DHT22;45905;50.570;10.428;2022-07-01T03:00:26;19.20;73.30
60033;DHT22;45905;50.570;10.428;2022-07-01T03:02:53;19.10;72.90
60033;DHT22;45905;50.570;10.428;2022-07-01T03:05:20;19.10;72.80
60033;DHT22;45905;50.570;10.428;2022-07-01T03:07:48;19.00;72.50
60033;DHT22;45905;50.570;10.428;2022-07-01T03:10:15;19.00;72.50
60033;DHT22;45905;50.570;10.428;2022-07-01T03:12:42;18.90;72.60
60033;DHT22;45905;50.570;10.428;2022-07-01T03:15:14;18.80;72.50
60033;DHT22;45905;50.570;10.428;2022-07-01T03:17:45;18.60;72.70
60033;DHT22;45905;50.570;10.428;2022-07-01T03:20:16;18.50;72.90
60033;DHT22;45905;50.570;10.428;2022-07-01T03:22:45;18.40;73.00
60033;DHT22;45905;50.570;10.428;2022-07-01T03:25:13;18.30;73.00
60033;DHT22;45905;50.570;10.428;2022-07-01T03:27:41;18.20;73.50
60033;DHT22;45905;50.570;10.428;2022-07-01T03:30:13;18.10;73.40
60033;DHT22;45905;50.570;10.428;2022-07-01T03:32:41;18.10;74.00
60033;DHT22;45905;50.570;10.428;2022-07-01T03:35:09;18.00;74.20
60033;DHT22;45905;50.570;10.428;2022-07-01T03:37:55;18.00;74.10
60033;DHT22;45905;50.570;10.428;2022-07-01T03:40:23;18.00;73.50
60033;DHT22;45905;50.570;10.428;2022-07-01T03:42:50;18.00;73.70
60033;DHT22;45905;50.570;10.428;2022-07-01T03:45:17;18.00;73.40
60033;DHT22;45905;50.570;10.428;2022-07-01T03:47:46;18.10;73.10
60033;DHT22;45905;50.570;10.428;2022-07-01T03:50:15;18.10;73.90
60033;DHT22;45905;50.570;10.428;2022-07-01T03:52:43;18.10;73.70
60033;DHT22;45905;50.570;10.428;2022-07-01T03:55:11;18.00;74.00
60033;DHT22;45905;50.570;10.428;2022-07-01T03:57:40;18.00;74.20
60033;DHT22;45905;50.570;10.428;2022-07-01T04:00:08;17.90;74.30
60033;DHT22;45905;50.570;10.428;2022-07-01T04:02:36;17.90;74.90
60033;DHT22;45905;50.570;10.428;2022-07-01T04:05:03;17.80;74.80
60033;DHT22;45905;50.570;10.428;2022-07-01T04:07:30;17.80;74.90
60033;DHT22;45905;50.570;10.428;2022-07-01T04:09:58;17.90;74.90
60033;DHT22;45905;50.570;10.428;2022-07-01T04:12:25;17.90;74.40
60033;DHT22;45905;50.570;10.428;2022-07-01T04:14:55;17.90;74.30
60033;DHT22;45905;50.570;10.428;2022-07-01T04:17:23;17.90;74.90
60033;DHT22;45905;50.570;10.428;2022-07-01T04:19:50;17.80;76.30
60033;DHT22;45905;50.570;10.428;2022-07-01T04:22:17;17.80;76.60
60033;DHT22;45905;50.570;10.428;2022-07-01T04:25:00;17.80;76.20
60033;DHT22;45905;50.570;10.428;2022-07-01T04:27:28;17.80;76.20
60033;DHT22;45905;50.570;10.428;2022-07-01T04:29:55;17.80;77.00
60033;DHT22;45905;50.570;10.428;2022-07-01T04:32:23;17.70;76.80
60033;DHT22;45905;50.570;10.428;2022-07-01T04:34:51;17.70;76.80
60033;DHT22;45905;50.570;10.428;2022-07-01T04:37:18;17.70;77.40
60033;DHT22;45905;50.570;10.428;2022-07-01T04:39:46;17.60;78.00
60033;DHT22;45905;50.570;10.428;2022-07-01T04:42:13;17.60;78.80
60033;DHT22;45905;50.570;10.428;2022-07-01T04:44:42;17.50;79.00
60033;DHT22;45905;50.570;10.428;2022-07-01T04:47:10;17.40;79.70
60033;DHT22;45905;50.570;10.428;2022-07-01T04:49:37;17.30;79.90
60033;DHT22;45905;50.570;10.428;2022-07-01T04:52:05;17.20;80.80
60033;DHT22;45905;50.570;10.428;2022-07-01T04:54:32;17.20;80.90
60033;DHT22;45905;50.570;10.428;2022-07-01T04:56:59;17.20;82.40
60033;DHT22;45905;50.570;10.428;2022-07-01T04:59:27;17.10;82.10
60033;DHT22;45905;50.570;10.428;2022-07-01T05:01:54;17.00;82.70
60033;DHT22;45905;50.570;10.428;2022-07-01T05:04:21;16.90;82.60
60033;DHT22;45905;50.570;10.428;2022-07-01T05:06:48;16.90;82.20
60033;DHT22;45905;50.570;10.428;2022-07-01T05:09:15;16.90;82.80
60033;DHT22;45905;50.570;10.428;2022-07-01T05:11:43;17.00;82.80
60033;DHT22;45905;50.570;10.428;2022-07-01T05:14:10;17.00;83.00
60033;DHT22;45905;50.570;10.428;2022-07-01T05:16:37;17.10;83.20
60033;DHT22;45905;50.570;10.428;2022-07-01T05:19:04;17.10;82.60
60033;DHT22;45905;50.570;10.428;2022-07-01T05:21:50;17.20;81.90
60033;DHT22;45905;50.570;10.428;2022-07-01T05:24:24;17.20;81.30
60033;DHT22;45905;50.570;10.428;2022-07-01T05:26:55;17.20;81.60
60033;DHT22;45905;50.570;10.428;2022-07-01T05:29:22;17.10;82.00
60033;DHT22;45905;50.570;10.428;2022-07-01T05:31:50;17.20;81.60
60033;DHT22;45905;50.570;10.428;2022-07-01T05:34:17;17.10;82.60
60033;DHT22;45905;50.570;10.428;2022-07-01T05:36:45;17.10;82.50
60033;DHT22;45905;50.570;10.428;2022-07-01T05:39:12;17.10;83.20
60033;DHT22;45905;50.570;10.428;2022-07-01T05:41:39;17.10;83.40
60033;DHT22;45905;50.570;10.428;2022-07-01T05:44:07;17.00;83.10
60033;DHT22;45905;50.570;10.428;2022-07-01T05:46:34;17.00;83.80
60033;DHT22;45905;50.570;10.428;2022-07-01T05:49:03;17.00;84.20
60033;DHT22;45905;50.570;10.428;2022-07-01T05:51:31;17.00;84.70
60033;DHT22;45905;50.570;10.428;2022-07-01T05:53:59;16.90;85.50
60033;DHT22;45905;50.570;10.428;2022-07-01T05:56:26;16.90;85.10
60033;DHT22;45905;50.570;10.428;2022-07-01T05:58:53;16.90;85.40
60033;DHT22;45905;50.570;10.428;2022-07-01T06:01:21;17.00;85.00
60033;DHT22;45905;50.570;10.428;2022-07-01T06:03:48;17.10;85.10
60033;DHT22;45905;50.570;10.428;2022-07-01T06:06:15;17.10;84.90
60033;DHT22;45905;50.570;10.428;2022-07-01T06:08:45;17.10;84.90
60033;DHT22;45905;50.570;10.428;2022-07-01T06:11:12;17.10;84.60
60033;DHT22;45905;50.570;10.428;2022-07-01T06:13:39;17.10;85.50
60033;DHT22;45905;50.570;10.428;2022-07-01T06:16:06;17.00;85.80
60033;DHT22;45905;50.570;10.428;2022-07-01T06:18:34;17.00;86.50
60033;DHT22;45905;50.570;10.428;2022-07-01T06:21:01;16.90;86.80
60033;DHT22;45905;50.570;10.428;2022-07-01T06:23:28;16.90;86.80
60033;DHT22;45905;50.570;10.428;2022-07-01T06:25:55;16.90;87.40
60033;DHT22;45905;50.570;10.428;2022-07-01T06:28:22;16.90;87.60
60033;DHT22;45905;50.570;10.428;2022-07-01T06:30:52;16.80;87.50
60033;DHT22;45905;50.570;10.428;2022-07-01T06:33:21;16.80;88.30
60033;DHT22;45905;50.570;10.428;2022-07-01T06:35:49;16.90;88.70
60033;DHT22;45905;50.570;10.428;2022-07-01T06:38:16;16.80;88.50
60033;DHT22;45905;50.570;10.428;2022-07-01T06:40:43;16.80;87.40
60033;DHT22;45905;50.570;10.428;2022-07-01T06:43:30;16.90;87.90
60033;DHT22;45905;50.570;10.428;2022-07-01T06:45:57;16.80;87.80
60033;DHT22;45905;50.570;10.428;2022-07-01T06:48:25;16.80;88.00
60033;DHT22;45905;50.570;10.428;2022-07-01T06:50:52;16.80;88.70
60033;DHT22;45905;50.570;10.428;2022-07-01T06:53:19;16.90;87.80
60033;DHT22;45905;50.570;10.428;2022-07-01T06:55:46;16.90;87.90
60033;DHT22;45905;50.570;10.428;2022-07-01T06:58:17;16.90;87.40
60033;DHT22;45905;50.570;10.428;2022-07-01T07:00:44;16.90;87.30
60033;DHT22;45905;50.570;10.428;2022-07-01T07:03:12;16.90;87.50
60033;DHT22;45905;50.570;10.428;2022-07-01T07:05:39;16.90;87.20
60033;DHT22;45905;50.570;10.428;2022-07-01T07:08:06;17.00;87.40
60033;DHT22;45905;50.570;10.428;2022-07-01T07:10:33;17.10;86.80
60033;DHT22;45905;50.570;10.428;2022-07-01T07:13:01;17.10;86.80
60033;DHT22;45905;50.570;10.428;2022-07-01T07:15:28;17.10;88.00
60033;DHT22;45905;50.570;10.428;2022-07-01T07:17:55;17.10;88.70
60033;DHT22;45905;50.570;10.428;2022-07-01T07:20:25;17.10;88.60
60033;DHT22;45905;50.570;10.428;2022-07-01T07:22:52;17.10;88.40
60033;DHT22;45905;50.570;10.428;2022-07-01T07:25:20;17.00;88.00
60033;DHT22;45905;50.570;10.428;2022-07-01T07:27:47;16.90;87.50
60033;DHT22;45905;50.570;10.428;2022-07-01T07:30:15;16.80;86.50
60033;DHT22;45905;50.570;10.428;2022-07-01T07:32:44;16.80;87.10
60033;DHT22;45905;50.570;10.428;2022-07-01T07:35:12;16.80;86.80
60033;DHT22;45905;50.570;10.428;2022-07-01T07:37:40;16.80;86.50
60033;DHT22;45905;50.570;10.428;2022-07-01T07:40:09;16.80;86.60
60033;DHT22;45905;50.570;10.428;2022-07-01T07:42:39;16.80;87.20
60033;DHT22;45905;50.570;10.428;2022-07-01T07:45:08;16.80;87.10
60033;DHT22;45905;50.570;10.428;2022-07-01T07:47:36;16.80;87.60
60033;DHT22;45905;50.570;10.428;2022-07-01T07:50:04;16.70;87.60
60033;DHT22;45905;50.570;10.428;2022-07-01T07:52:31;16.80;87.60
60033;DHT22;45905;50.570;10.428;2022-07-01T07:54:59;16.90;87.10
60033;DHT22;45905;50.570;10.428;2022-07-01T07:57:26;17.00;86.50
60033;DHT22;45905;50.570;10.428;2022-07-01T07:59:53;17.00;85.70
60033;DHT22;45905;50.570;10.428;2022-07-01T08:02:20;17.10;85.20
60033;DHT22;45905;50.570;10.428;2022-07-01T08:04:50;17.10;84.90
60033;DHT22;45905;50.570;10.428;2022-07-01T08:07:18;17.20;84.80
60033;DHT22;45905;50.570;10.428;2022-07-01T08:09:47;17.20;84.60
60033;DHT22;45905;50.570;10.428;2022-07-01T08:12:16;17.30;84.00
60033;DHT22;45905;50.570;10.428;2022-07-01T08:14:44;17.20;84.30
60033;DHT22;45905;50.570;10.428;2022-07-01T08:17:11;17.20;84.00
60033;DHT22;45905;50.570;10.428;2022-07-01T08:19:38;17.10;84.70
60033;DHT22;45905;50.570;10.428;2022-07-01T08:22:05;17.00;85.10
60033;DHT22;45905;50.570;10.428;2022-07-01T08:24:33;17.00;86.00
60033;DHT22;45905;50.570;10.428;2022-07-01T08:27:00;16.90;85.20
60033;DHT22;45905;50.570;10.428;2022-07-01T08:29:28;16.90;85.00
60033;DHT22;45905;50.570;10.428;2022-07-01T08:31:55;16.90;85.60
60033;DHT22;45905;50.570;10.428;2022-07-01T08:34:22;16.80;84.80
60033;DHT22;45905;50.570;10.428;2022-07-01T08:36:49;16.80;84.80
60033;DHT22;45905;50.570;10.428;2022-07-01T08:39:17;16.70;84.70
60033;DHT22;45905;50.570;10.428;2022-07-01T08:41:44;16.60;84.40
60033;DHT22;45905;50.570;10.428;2022-07-01T08:44:11;16.60;84.50
60033;DHT22;45905;50.570;10.428;2022-07-01T08:46:38;16.60;84.80
60033;DHT22;45905;50.570;10.428;2022-07-01T08:49:06;16.50;84.30
60033;DHT22;45905;50.570;10.428;2022-07-01T08:51:33;16.50;83.90
60033;DHT22;45905;50.570;10.428;2022-07-01T08:54:01;16.40;83.30
60033;DHT22;45905;50.570;10.428;2022-07-01T08:56:28;16.40;83.30
60033;DHT22;45905;50.570;10.428;2022-07-01T08:59:23;16.30;83.30
60033;DHT22;45905;50.570;10.428;2022-07-01T09:02:00;16.30;83.40
60033;DHT22;45905;50.570;10.428;2022-07-01T09:04:31;16.30;83.20
60033;DHT22;45905;50.570;10.428;2022-07-01T09:07:03;16.40;83.10
60033;DHT22;45905;50.570;10.428;2022-07-01T09:09:39;16.40;83.40
60033;DHT22;45905;50.570;10.428;2022-07-01T09:12:07;16.50;83.60
60033;DHT22;45905;50.570;10.428;2022-07-01T09:14:36;16.50;83.60
60033;DHT22;45905;50.570;10.428;2022-07-01T09:17:05;16.60;83.20
60033;DHT22;45905;50.570;10.428;2022-07-01T09:19:35;16.60;82.70
60033;DHT22;45905;50.570;10.428;2022-07-01T09:22:10;16.70;82.60
60033;DHT22;45905;50.570;10.428;2022-07-01T09:24:39;16.60;82.50
60033;DHT22;45905;50.570;10.428;2022-07-01T09:27:13;16.60;81.70
60033;DHT22;45905;50.570;10.428;2022-07-01T09:29:45;16.60;81.60
60033;DHT22;45905;50.570;10.428;2022-07-01T09:32:22;16.60;81.80
60033;DHT22;45905;50.570;10.428;2022-07-01T09:34:52;16.60;82.40
60033;DHT22;45905;50.570;10.428;2022-07-01T09:37:24;16.60;82.60
60033;DHT22;45905;50.570;10.428;2022-07-01T09:39:54;16.60;82.40
60033;DHT22;45905;50.570;10.428;2022-07-01T09:42:24;16.60;82.90
60033;DHT22;45905;50.570;10.428;2022-07-01T09:45:04;16.60;83.70
60033;DHT22;45905;50.570;10.428;2022-07-01T09:47:36;16.60;83.50
60033;DHT22;45905;50.570;10.428;2022-07-01T09:50:07;16.60;83.10
60033;DHT22;45905;50.570;10.428;2022-07-01T09:52:36;16.60;82.60
60033;DHT22;45905;50.570;10.428;2022-07-01T09:55:06;16.60;81.70
60033;DHT22;45905;50.570;10.428;2022-07-01T09:57:34;16.60;82.30
60033;DHT22;45905;50.570;10.428;2022-07-01T10:00:04;16.60;81.90
60033;DHT22;45905;50.570;10.428;2022-07-01T10:02:33;16.60;81.80
60033;DHT22;45905;50.570;10.428;2022-07-01T10:05:08;16.60;81.30
60033;DHT22;45905;50.570;10.428;2022-07-01T10:13:23;16.60;81.40
60033;DHT22;45905;50.570;10.428;2022-07-01T10:15:57;16.70;81.70
60033;DHT22;45905;50.570;10.428;2022-07-01T10:18:26;16.60;81.10
60033;DHT22;45905;50.570;10.428;2022-07-01T10:20:55;16.60;80.60
60033;DHT22;45905;50.570;10.428;2022-07-01T10:23:28;16.60;80.80
60033;DHT22;45905;50.570;10.428;2022-07-01T10:26:09;16.60;81.60
60033;DHT22;45905;50.570;10.428;2022-07-01T10:28:45;16.60;83.00
60033;DHT22;45905;50.570;10.428;2022-07-01T10:31:17;16.60;82.30
60033;DHT22;45905;50.570;10.428;2022-07-01T10:36:25;16.60;83.70
60033;DHT22;45905;50.570;10.428;2022-07-01T10:44:39;16.50;84.60
60033;DHT22;45905;50.570;10.428;2022-07-01T10:47:07;16.50;84.30
60033;DHT22;45905;50.570;10.428;2022-07-01T10:52:14;16.40;85.60
60033;DHT22;45905;50.570;10.428;2022-07-01T10:59:47;16.50;88.00
60033;DHT22;45905;50.570;10.428;2022-07-01T11:02:28;16.60;87.30
60033;DHT22;45905;50.570;10.428;2022-07-01T11:05:04;16.60;87.60
60033;DHT22;45905;50.570;10.428;2022-07-01T11:07:36;16.60;87.60
60033;DHT22;45905;50.570;10.428;2022-07-01T11:10:09;16.60;87.30
60033;DHT22;45905;50.570;10.428;2022-07-01T11:12:41;16.60;87.00
60033;DHT22;45905;50.570;10.428;2022-07-01T11:15:15;16.70;87.80
60033;DHT22;45905;50.570;10.428;2022-07-01T11:17:49;16.70;84.80
60033;DHT22;45905;50.570;10.428;2022-07-01T11:20:17;16.60;84.00
60033;DHT22;45905;50.570;10.428;2022-07-01T11:22:49;16.60;84.70
60033;DHT22;45905;50.570;10.428;2022-07-01T11:25:19;16.60;86.10
60033;DHT22;45905;50.570;10.428;2022-07-01T11:27:49;16.70;85.80
60033;DHT22;45905;50.570;10.428;2022-07-01T11:30:19;16.70;85.80
60033;DHT22;45905;50.570;10.428;2022-07-01T11:32:55;16.70;85.80
60033;DHT22;45905;50.570;10.428;2022-07-01T11:35:29;16.70;84.30
60033;DHT22;45905;50.570;10.428;2022-07-01T11:38:19;16.70;84.60
60033;DHT22;45905;50.570;10.428;2022-07-01T11:41:25;16.70;84.90
60033;DHT22;45905;50.570;10.428;2022-07-01T11:43:53;16.70;85.60
60033;DHT22;45905;50.570;10.428;2022-07-01T11:46:21;16.70;84.80
60033;DHT22;45905;50.570;10.428;2022-07-01T11:48:50;16.70;85.10
60033;DHT22;45905;50.570;10.428;2022-07-01T11:51:23;16.70;84.10
60033;DHT22;45905;50.570;10.428;2022-07-01T11:53:54;16.70;84.00
60033;DHT22;45905;50.570;10.428;2022-07-01T11:56:34;16.70;83.00
60033;DHT22;45905;50.570;10.428;2022-07-01T11:59:05;16.80;84.00
60033;DHT22;45905;50.570;10.428;2022-07-01T12:01:34;16.70;84.20
60033;DHT22;45905;50.570;10.428;2022-07-01T12:04:08;16.60;83.90
60033;DHT22;45905;50.570;10.428;2022-07-01T12:06:37;16.70;85.20
60033;DHT22;45905;50.570;10.428;2022-07-01T12:09:06;16.70;84.00
60033;DHT22;45905;50.570;10.428;2022-07-01T12:11:38;16.60;84.00
60033;DHT22;45905;50.570;10.428;2022-07-01T12:14:05;16.50;83.30
60033;DHT22;45905;50.570;10.428;2022-07-01T12:16:40;16.40;84.40
60033;DHT22;45905;50.570;10.428;2022-07-01T12:19:08;16.40;84.90
60033;DHT22;45905;50.570;10.428;2022-07-01T12:21:52;16.50;85.40
60033;DHT22;45905;50.570;10.428;2022-07-01T12:24:21;16.50;85.80
60033;DHT22;45905;50.570;10.428;2022-07-01T12:29:49;16.50;86.30
60033;DHT22;45905;50.570;10.428;2022-07-01T12:32:24;16.50;85.20
60033;DHT22;45905;50.570;10.428;2022-07-01T12:34:58;16.50;83.30
60033;DHT22;45905;50.570;10.428;2022-07-01T12:37:53;16.40;83.80
60033;DHT22;45905;50.570;10.428;2022-07-01T12:40:22;16.30;82.70
60033;DHT22;45905;50.570;10.428;2022-07-01T12:42:56;16.30;82.70
60033;DHT22;45905;50.570;10.428;2022-07-01T12:45:27;16.30;82.30
60033;DHT22;45905;50.570;10.428;2022-07-01T12:47:56;16.30;82.30
60033;DHT22;45905;50.570;10.428;2022-07-01T12:50:25;16.30;82.60
60033;DHT22;45905;50.570;10.428;2022-07-01T12:55:50;16.20;82.10
60033;DHT22;45905;50.570;10.428;2022-07-01T12:58:21;16.20;82.10
60033;DHT22;45905;50.570;10.428;2022-07-01T13:00:54;16.20;83.00
60033;DHT22;45905;50.570;10.428;2022-07-01T13:03:25;16.30;82.70
60033;DHT22;45905;50.570;10.428;2022-07-01T13:05:55;16.30;83.10
60033;DHT22;45905;50.570;10.428;2022-07-01T13:08:23;16.20;83.60
60033;DHT22;45905;50.570;10.428;2022-07-01T13:10:50;16.30;84.70
60033;DHT22;45905;50.570;10.428;2022-07-01T13:13:18;16.30;83.60
60033;DHT22;45905;50.570;10.428;2022-07-01T13:15:46;16.30;83.80
60033;DHT22;45905;50.570;10.428;2022-07-01T13:18:13;16.30;84.50
60033;DHT22;45905;50.570;10.428;2022-07-01T13:20:42;16.30;83.90
60033;DHT22;45905;50.570;10.428;2022-07-01T13:23:11;16.30;84.10
60033;DHT22;45905;50.570;10.428;2022-07-01T13:25:39;16.30;84.00
60033;DHT22;45905;50.570;10.428;2022-07-01T13:28:07;16.30;83.70
60033;DHT22;45905;50.570;10.428;2022-07-01T13:30:34;16.40;84.50
60033;DHT22;45905;50.570;10.428;2022-07-01T13:33:03;16.40;84.00
60033;DHT22;45905;50.570;10.428;2022-07-01T13:35:30;16.50;84.10
60033;DHT22;45905;50.570;10.428;2022-07-01T13:37:58;16.50;84.10
60033;DHT22;45905;50.570;10.428;2022-07-01T13:40:25;16.60;84.20
60033;DHT22;45905;50.570;10.428;2022-07-01T13:42:52;16.60;83.80
60033;DHT22;45905;50.570;10.428;2022-07-01T13:45:19;16.60;84.00
60033;DHT22;45905;50.570;10.428;2022-07-01T13:47:46;16.60;84.80
60033;DHT22;45905;50.570;10.428;2022-07-01T13:50:14;16.70;85.20
60033;DHT22;45905;50.570;10.428;2022-07-01T13:52:47;16.80;87.20
60033;DHT22;45905;50.570;10.428;2022-07-01T13:55:16;16.90;86.30
60033;DHT22;45905;50.570;10.428;2022-07-01T13:57:45;17.00;85.60
60033;DHT22;45905;50.570;10.428;2022-07-01T14:00:13;17.10;84.60
60033;DHT22;45905;50.570;10.428;2022-07-01T14:02:41;17.20;83.60
60033;DHT22;45905;50.570;10.428;2022-07-01T14:05:09;17.20;83.30
60033;DHT22;45905;50.570;10.428;2022-07-01T14:07:37;17.30;83.00
60033;DHT22;45905;50.570;10.428;2022-07-01T14:10:05;17.30;82.80
60033;DHT22;45905;50.570;10.428;2022-07-01T14:12:33;17.30;83.20
60033;DHT22;45905;50.570;10.428;2022-07-01T14:15:00;17.40;83.50
60033;DHT22;45905;50.570;10.428;2022-07-01T14:17:28;17.50;84.10
60033;DHT22;45905;50.570;10.428;2022-07-01T14:19:55;17.60;83.70
60033;DHT22;45905;50.570;10.428;2022-07-01T14:22:24;17.70;81.80
60033;DHT22;45905;50.570;10.428;2022-07-01T14:24:52;17.90;81.90
60033;DHT22;45905;50.570;10.428;2022-07-01T14:27:20;18.00;81.50
60033;DHT22;45905;50.570;10.428;2022-07-01T14:29:47;17.90;79.10
60033;DHT22;45905;50.570;10.428;2022-07-01T14:32:22;18.00;79.40
60033;DHT22;45905;50.570;10.428;2022-07-01T14:34:55;18.00;78.00
60033;DHT22;45905;50.570;10.428;2022-07-01T14:37:22;18.00;77.80
60033;DHT22;45905;50.570;10.428;2022-07-01T14:39:49;18.00;77.70
60033;DHT22;45905;50.570;10.428;2022-07-01T14:42:26;18.10;77.70
60033;DHT22;45905;50.570;10.428;2022-07-01T14:44:54;18.10;79.20
60033;DHT22;45905;50.570;10.428;2022-07-01T14:47:22;18.20;79.50
60033;DHT22;45905;50.570;10.428;2022-07-01T14:49:50;18.30;78.50
60033;DHT22;45905;50.570;10.428;2022-07-01T14:52:19;18.40;77.70
60033;DHT22;45905;50.570;10.428;2022-07-01T14:54:48;18.40;75.30
60033;DHT22;45905;50.570;10.428;2022-07-01T14:57:17;18.50;74.20
60033;DHT22;45905;50.570;10.428;2022-07-01T14:59:44;18.50;74.30
60033;DHT22;45905;50.570;10.428;2022-07-01T15:02:12;18.50;74.30
60033;DHT22;45905;50.570;10.428;2022-07-01T15:04:39;18.50;75.20
60033;DHT22;45905;50.570;10.428;2022-07-01T15:07:08;18.60;75.00
60033;DHT22;45905;50.570;10.428;2022-07-01T15:09:36;18.60;74.90
60033;DHT22;45905;50.570;10.428;2022-07-01T15:12:03;18.60;74.50
60033;DHT22;45905;50.570;10.428;2022-07-01T15:14:31;18.60;74.70
60033;DHT22;45905;50.570;10.428;2022-07-01T15:16:59;18.70;74.90
60033;DHT22;45905;50.570;10.428;2022-07-01T15:19:27;18.70;74.50
60033;DHT22;45905;50.570;10.428;2022-07-01T15:21:56;18.80;74.50
60033;DHT22;45905;50.570;10.428;2022-07-01T15:24:24;18.90;73.60
60033;DHT22;45905;50.570;10.428;2022-07-01T15:26:52;19.00;74.50
60033;DHT22;45905;50.570;10.428;2022-07-01T15:29:20;19.20;74.70
60033;DHT22;45905;50.570;10.428;2022-07-01T15:31:48;19.20;71.00
60033;DHT22;45905;50.570;10.428;2022-07-01T15:34:17;19.20;71.30
60033;DHT22;45905;50.570;10.428;2022-07-01T15:36:45;19.30;72.40
60033;DHT22;45905;50.570;10.428;2022-07-01T15:39:13;19.40;72.40
60033;DHT22;45905;50.570;10.428;2022-07-01T15:41:42;19.50;73.90
60033;DHT22;45905;50.570;10.428;2022-07-01T15:44:10;19.60;72.50
60033;DHT22;45905;50.570;10.428;2022-07-01T15:46:39;19.70;70.10
60033;DHT22;45905;50.570;10.428;2022-07-01T15:49:06;19.80;69.20
60033;DHT22;45905;50.570;10.428;2022-07-01T15:51:35;19.70;68.20
60033;DHT22;45905;50.570;10.428;2022-07-01T15:54:02;19.70;69.00